Time;durP1;ratioP1;P1;durP2;ratioP2;P2;SDS_P1;SDS_P2;PMS_P1;PMS_P2;Temp;Humidity;BMP_temperature;BMP_pressure;BME280_temperature;BME280_humidity;BME280_pressure;Samples;Min_cycle;Max_cycle;Signal;HPM_P1;HPM_P2
2024/02/23 00:01:07;;;;;;;;;3.00;1.17;;;;;8.69;63.61;99500.16;2027002;28;2746122;-73
2024/02/23 00:02:20;;;;;;;;;0.83;0.83;;;;;8.70;63.67;99500.97;2003028;28;2733595;-73
2024/02/23 00:03:36;;;;;;;;;4.33;2.00;;;;;8.73;63.67;99506.94;2027187;28;2729457;-73
2024/02/23 00:04:50;;;;;;;;;2.17;1.50;;;;;8.69;63.32;99499.28;2026595;28;2746691;-73
2024/02/23 00:06:03;;;;;;;;;2.00;1.17;;;;;8.69;63.33;99510.63;2027251;28;2736740;-73
2024/02/23 00:07:16;;;;;;;;;2.00;1.00;;;;;8.71;63.48;99506.16;2003565;28;2736163;-73
2024/02/23 00:08:30;;;;;;;;;2.00;2.00;;;;;8.68;63.34;99498.44;2026036;28;2746098;-73
2024/02/23 00:09:43;;;;;;;;;1.33;0.00;;;;;8.66;63.48;99497.66;2004124;28;2725286;-72
2024/02/23 00:10:56;;;;;;;;;4.50;1.17;;;;;8.68;63.34;99508.91;2026293;28;2746103;-73
2024/02/23 00:12:09;;;;;;;;;1.33;1.00;;;;;8.63;63.31;99511.75;2003340;28;2731534;-73
2024/02/23 00:13:22;;;;;;;;;0.83;0.83;;;;;8.65;63.00;99520.38;2027619;28;2731555;-73
2024/02/23 00:14:36;;;;;;;;;1.00;1.00;;;;;8.62;63.42;99517.03;2025573;28;2731523;-73
2024/02/23 00:15:49;;;;;;;;;1.83;1.17;;;;;8.64;63.31;99515.22;2026131;28;2740886;-73
2024/02/23 00:17:02;;;;;;;;;2.17;0.33;;;;;8.65;63.83;99514.28;2026277;28;2737802;-73
2024/02/23 00:18:16;;;;;;;;;1.00;1.00;;;;;8.62;64.06;99509.16;2027065;28;2737773;-73
2024/02/23 00:19:30;;;;;;;;;1.50;1.50;;;;;8.65;63.85;99517.75;2026889;28;2737804;-73
2024/02/23 00:20:44;;;;;;;;;0.17;0.17;;;;;8.61;63.86;99508.34;2027490;28;2733611;-73
2024/02/23 00:21:59;;;;;;;;;1.00;0.17;;;;;8.62;63.23;99515.28;2027033;28;2733694;-74
2024/02/23 00:23:12;;;;;;;;;1.50;1.00;;;;;8.59;63.61;99510.19;2027444;28;2738486;-73
2024/02/23 00:24:26;;;;;;;;;2.00;0.33;;;;;8.60;63.39;99517.09;2026954;28;2735725;-73
2024/02/23 00:25:39;;;;;;;;;1.00;1.00;;;;;8.58;63.86;99518.94;2026558;28;2737761;-73
2024/02/23 00:26:52;;;;;;;;;2.00;1.17;;;;;8.58;63.64;99520.69;2026914;28;2741964;-73
2024/02/23 00:28:06;;;;;;;;;3.83;1.00;;;;;8.56;63.69;99520.75;2034686;28;2733634;-73
2024/02/23 00:29:19;;;;;;;;;2.00;1.00;;;;;8.56;63.68;99515.53;2027770;28;2739911;-73
2024/02/23 00:30:32;;;;;;;;;1.33;1.00;;;;;8.55;63.99;99511.19;2004707;28;2726340;-73
2024/02/23 00:31:46;;;;;;;;;2.50;0.50;;;;;8.53;63.54;99516.50;2026753;28;2734668;-73
2024/02/23 00:32:59;;;;;;;;;1.00;1.00;;;;;8.54;63.51;99507.72;2027192;28;2737750;-73
2024/02/23 00:34:13;;;;;;;;;3.67;2.00;;;;;8.57;63.66;99517.19;2025618;28;2742017;-73
2024/02/23 00:35:26;;;;;;;;;2.83;1.50;;;;;8.53;63.75;99515.66;2025700;28;2738807;-73
2024/02/23 00:36:41;;;;;;;;;1.83;1.00;;;;;8.52;63.45;99519.19;2034468;28;2741956;-73
2024/02/23 00:37:54;;;;;;;;;1.83;1.83;;;;;8.49;63.65;99512.34;2031117;28;2746115;-73
2024/02/23 00:39:08;;;;;;;;;4.00;1.50;;;;;8.50;63.77;99510.53;2032555;28;2746124;-73
2024/02/23 00:40:21;;;;;;;;;1.00;1.00;;;;;8.49;63.28;99514.09;2033067;28;2733623;-73
2024/02/23 00:41:34;;;;;;;;;0.83;0.83;;;;;8.50;64.28;99521.00;2026424;28;2741952;-73
2024/02/23 00:42:48;;;;;;;;;1.00;0.50;;;;;8.49;63.78;99516.72;2035990;28;2731508;-73
2024/02/23 00:44:03;;;;;;;;;2.00;2.00;;;;;8.50;63.25;99515.78;2026024;28;2733610;-73
2024/02/23 00:45:16;;;;;;;;;1.00;1.00;;;;;8.50;63.51;99516.63;2026528;28;2733631;-73
2024/02/23 00:46:29;;;;;;;;;1.00;1.00;;;;;8.48;63.61;99513.25;2027868;28;2736712;-73
2024/02/23 00:47:43;;;;;;;;;4.17;2.33;;;;;8.51;64.31;99522.72;2034016;28;2751099;-73
2024/02/23 00:48:56;;;;;;;;;3.00;0.00;;;;;8.48;63.95;99515.84;2026497;28;2739889;-73
2024/02/23 00:50:10;;;;;;;;;1.00;1.00;;;;;8.50;64.29;99521.88;2025911;28;2741939;-73
2024/02/23 00:51:23;;;;;;;;;2.33;1.50;;;;;8.49;63.93;99519.34;2026475;28;2737781;-73
2024/02/23 00:52:37;;;;;;;;;2.33;1.67;;;;;8.52;63.85;99525.25;2026348;28;2746125;-73
2024/02/23 00:53:50;;;;;;;;;0.83;0.17;;;;;8.51;64.19;99523.59;2027199;28;2726324;-73
2024/02/23 00:55:03;;;;;;;;;1.00;1.00;;;;;8.51;64.30;99522.72;2025677;27;2738191;-73
2024/02/23 00:56:16;;;;;;;;;2.83;1.00;;;;;8.51;64.45;99518.34;2026247;28;2737766;-73
2024/02/23 00:57:30;;;;;;;;;2.00;0.50;;;;;8.55;63.99;99530.38;2026641;28;2736356;-73
2024/02/23 00:58:43;;;;;;;;;3.17;2.83;;;;;8.54;64.26;99518.19;2026288;28;2735765;-73
2024/02/23 00:59:57;;;;;;;;;1.33;1.00;;;;;8.58;64.52;99523.31;2026267;28;2741972;-73
2024/02/23 01:01:10;;;;;;;;;2.17;1.67;;;;;8.55;64.41;99525.13;2027178;28;2735698;-73
2024/02/23 01:02:23;;;;;;;;;1.50;1.00;;;;;8.61;64.26;99517.97;2027374;28;2737851;-73
2024/02/23 01:03:36;;;;;;;;;2.67;1.33;;;;;8.60;64.59;99526.72;2026221;28;2736198;-73
2024/02/23 01:04:50;;;;;;;;;4.33;2.00;;;;;8.64;64.14;99533.56;2025281;28;2746087;-73
2024/02/23 01:06:03;;;;;;;;;2.00;2.00;;;;;8.61;63.64;99510.97;2003462;28;2736972;-73
2024/02/23 01:07:16;;;;;;;;;1.00;1.00;;;;;8.61;64.01;99513.59;2026583;28;2741996;-73
2024/02/23 01:08:29;;;;;;;;;3.83;3.00;;;;;8.65;63.99;99527.38;2026278;28;2754433;-73
2024/02/23 01:09:42;;;;;;;;;2.00;1.00;;;;;8.62;64.05;99514.41;2004265;28;2736720;-73
2024/02/23 01:10:56;;;;;;;;;2.00;2.00;;;;;8.65;64.42;99516.91;2028015;28;2737806;-73
2024/02/23 01:12:09;;;;;;;;;2.17;1.00;;;;;8.65;63.74;99509.03;2028114;28;2737840;-73
2024/02/23 01:13:22;;;;;;;;;1.00;1.00;;;;;8.64;64.45;99512.59;2027463;28;2735683;-73
2024/02/23 01:14:35;;;;;;;;;3.67;1.67;;;;;8.64;64.54;99500.31;2018867;28;2736089;-73
2024/02/23 01:15:49;;;;;;;;;2.83;1.67;;;;;8.67;64.65;99504.59;2018796;28;2733595;-73
2024/02/23 01:17:02;;;;;;;;;1.00;1.00;;;;;8.70;64.47;99500.97;2028952;28;2731547;-73
2024/02/23 01:18:15;;;;;;;;;3.83;2.33;;;;;8.70;64.72;99495.72;2018784;28;2739861;-73
2024/02/23 01:19:28;;;;;;;;;2.33;2.33;;;;;8.75;64.96;99499.00;2020343;28;2736731;-73
2024/02/23 01:20:42;;;;;;;;;2.17;2.17;;;;;8.74;64.83;99492.06;2027374;28;2740902;-73
2024/02/23 01:21:59;;;;;;;;;3.33;3.33;;;;;8.76;64.60;99492.84;2027890;28;2747454;-73
2024/02/23 01:23:12;;;;;;;;;3.83;2.17;;;;;8.80;64.32;99502.25;2027490;28;2744051;-73
2024/02/23 01:24:29;;;;;;;;;3.50;1.50;;;;;8.79;64.55;99484.84;2027469;28;2734111;-73
2024/02/23 01:25:42;;;;;;;;;1.50;1.17;;;;;8.79;64.38;99490.06;2026692;27;2742962;-73
2024/02/23 01:26:56;;;;;;;;;0.67;0.00;;;;;8.83;63.99;99489.03;2005826;28;2716973;-73
2024/02/23 01:28:09;;;;;;;;;2.00;2.00;;;;;8.83;64.47;99493.41;2027347;27;2737781;-73
2024/02/23 01:29:22;;;;;;;;;0.83;0.83;;;;;8.80;64.27;99490.94;2027788;28;2733610;-73
2024/02/23 01:30:35;;;;;;;;;3.67;2.83;;;;;8.80;64.19;99486.53;2027140;28;2732573;-73
2024/02/23 01:31:49;;;;;;;;;2.33;2.00;;;;;8.82;64.54;99486.47;2027966;28;2741932;-73
2024/02/23 01:33:02;;;;;;;;;1.67;1.67;;;;;8.84;64.00;99489.88;2023961;28;2738803;-73
2024/02/23 01:34:15;;;;;;;;;2.17;1.00;;;;;8.82;64.17;99481.22;2021918;28;2737814;-73
2024/02/23 01:35:30;;;;;;;;;2.00;1.83;;;;;8.83;63.87;99483.78;2026511;28;2743032;-73
2024/02/23 01:36:43;;;;;;;;;1.83;1.33;;;;;8.81;63.70;99477.78;2006155;28;2733602;-73
2024/02/23 01:37:56;;;;;;;;;0.83;0.83;;;;;8.80;64.11;99478.69;2027825;28;2736772;-73
2024/02/23 01:39:11;;;;;;;;;3.17;1.00;;;;;8.81;64.02;99477.78;2027452;27;2739861;-73
2024/02/23 01:40:24;;;;;;;;;1.50;1.33;;;;;8.80;64.01;99478.69;2027664;28;2742003;-73
2024/02/23 01:41:37;;;;;;;;;4.17;1.50;;;;;8.82;64.02;99478.59;2027147;28;2741960;-73
2024/02/23 01:43:04;;;;;;;;;1.50;1.50;;;;;8.82;64.31;99479.47;2026882;28;2737095;-72
2024/02/23 01:44:17;;;;;;;;;1.83;1.33;;;;;8.85;64.05;99479.31;2027943;28;2738847;-73
2024/02/23 01:45:31;;;;;;;;;2.33;1.17;;;;;8.83;64.22;99465.44;1996075;27;2732564;-73
2024/02/23 01:46:45;;;;;;;;;1.50;1.50;;;;;8.82;64.16;99466.34;2015656;28;2739868;-73
2024/02/23 01:48:00;;;;;;;;;2.00;1.33;;;;;8.84;64.27;99468.94;2020024;28;2744496;-73
2024/02/23 01:49:14;;;;;;;;;3.50;2.00;;;;;8.84;64.32;99461.06;2028034;28;2740883;-73
2024/02/23 01:50:27;;;;;;;;;3.83;1.00;;;;;8.83;64.47;99454.13;2004438;28;2735722;-73
2024/02/23 01:51:40;;;;;;;;;0.33;0.33;;;;;8.86;64.35;99465.31;2005122;28;2731533;-73
2024/02/23 01:52:56;;;;;;;;;5.00;2.67;;;;;8.88;64.58;99460.00;2027730;28;2727822;-73
2024/02/23 01:54:10;;;;;;;;;3.50;1.67;;;;;8.87;63.90;99459.13;2027642;28;2738300;-73
2024/02/23 01:55:23;;;;;;;;;1.00;0.50;;;;;8.92;64.21;99468.53;2029917;28;2731512;-73
2024/02/23 01:56:39;;;;;;;;;4.67;2.17;;;;;8.88;64.26;99465.22;2027754;28;2746137;-73
2024/02/23 01:57:53;;;;;;;;;2.33;1.83;;;;;8.87;63.51;99461.75;2004378;28;2742962;-73
2024/02/23 01:59:10;;;;;;;;;2.00;2.00;;;;;8.87;63.89;99467.00;2004873;28;2737773;-73
2024/02/23 02:00:24;;;;;;;;;2.00;0.50;;;;;8.88;63.89;99462.63;2027583;28;2739184;-73
2024/02/23 02:01:37;;;;;;;;;4.83;2.50;;;;;8.90;64.15;99466.00;2028067;28;2735711;-73
2024/02/23 02:02:50;;;;;;;;;1.00;1.00;;;;;8.93;64.18;99468.50;2027705;27;2727381;-73
2024/02/23 02:04:03;;;;;;;;;2.67;2.33;;;;;8.90;64.18;99460.75;2027759;28;2732561;-73
2024/02/23 02:05:17;;;;;;;;;2.50;2.00;;;;;8.89;63.91;99454.66;2025597;28;2746140;-73
2024/02/23 02:06:30;;;;;;;;;2.83;1.00;;;;;8.94;64.09;99459.69;1995793;28;2737766;-73
2024/02/23 02:07:46;;;;;;;;;2.00;2.00;;;;;8.91;63.72;99459.84;2020240;28;2744020;-73
2024/02/23 02:09:00;;;;;;;;;4.00;2.00;;;;;8.94;64.21;99459.69;2027865;28;2739838;-73
2024/02/23 02:10:13;;;;;;;;;1.83;1.00;;;;;8.91;64.19;99452.00;2004540;28;2737762;-73
2024/02/23 02:11:26;;;;;;;;;4.83;2.83;;;;;8.93;63.66;99450.16;2027599;28;2740357;-73
2024/02/23 02:12:40;;;;;;;;;4.00;1.00;;;;;8.87;63.78;99442.56;2027172;28;2727377;-73
2024/02/23 02:13:53;;;;;;;;;3.00;2.00;;;;;8.90;63.22;99450.28;2027028;27;2750258;-73
2024/02/23 02:15:06;;;;;;;;;1.83;1.83;;;;;8.84;63.90;99445.34;2027215;28;2736740;-73
2024/02/23 02:16:20;;;;;;;;;3.67;2.33;;;;;8.82;63.95;99444.53;2018740;28;2746094;-73
2024/02/23 02:17:33;;;;;;;;;1.17;1.00;;;;;8.82;63.96;99447.16;2020006;28;2736739;-73
2024/02/23 02:18:47;;;;;;;;;4.00;2.00;;;;;8.81;63.72;99450.72;1995451;28;2741980;-73
2024/02/23 02:20:04;;;;;;;;;1.00;1.00;;;;;8.83;63.66;99454.13;2019603;28;2717975;-73
2024/02/23 02:21:18;;;;;;;;;2.83;2.83;;;;;8.79;64.32;99453.38;2027145;28;2732600;-73
2024/02/23 02:22:34;;;;;;;;;1.33;1.33;;;;;8.79;64.02;99456.00;2027280;28;2736762;-73
2024/02/23 02:23:47;;;;;;;;;5.17;2.00;;;;;8.83;63.89;99447.09;2027106;27;2743013;-73
2024/02/23 02:25:01;;;;;;;;;0.33;0.33;;;;;8.78;64.08;99441.22;2027351;28;2719016;-73
2024/02/23 02:26:14;;;;;;;;;2.33;1.00;;;;;8.83;64.04;99446.25;2028833;28;2737785;-73
2024/02/23 02:27:27;;;;;;;;;2.00;1.00;;;;;8.79;64.29;99440.28;2003366;27;2739882;-73
2024/02/23 02:28:40;;;;;;;;;1.00;1.00;;;;;8.83;64.13;99443.63;2026618;28;2745064;-73
2024/02/23 02:29:53;;;;;;;;;1.17;1.17;;;;;8.78;64.00;99439.47;2034559;28;2744501;-73
2024/02/23 02:31:07;;;;;;;;;4.67;2.50;;;;;8.79;64.18;99448.16;2034356;28;2737786;-73
2024/02/23 02:32:20;;;;;;;;;0.50;0.50;;;;;8.77;63.79;99437.75;2027427;27;2729435;-73
2024/02/23 02:33:33;;;;;;;;;2.00;2.00;;;;;8.77;64.30;99435.13;2028049;28;2732554;-73
2024/02/23 02:34:46;;;;;;;;;2.83;1.00;;;;;8.78;63.75;99436.00;2026444;28;2741944;-74
2024/02/23 02:36:00;;;;;;;;;3.33;1.83;;;;;8.77;64.20;99424.66;2027133;28;2746494;-73
2024/02/23 02:37:13;;;;;;;;;1.33;1.33;;;;;8.82;64.23;99424.44;2019771;28;2744031;-73
2024/02/23 02:38:26;;;;;;;;;2.50;2.00;;;;;8.81;63.96;99429.75;2026987;28;2737789;-73
2024/02/23 02:39:39;;;;;;;;;2.67;1.83;;;;;8.84;64.00;99429.63;2027370;28;2737773;-73
2024/02/23 02:40:52;;;;;;;;;1.00;1.00;;;;;8.83;63.81;99430.53;2027679;27;2739154;-73
2024/02/23 02:42:06;;;;;;;;;1.00;1.00;;;;;8.84;64.32;99419.97;2027786;28;2724270;-73
2024/02/23 02:43:19;;;;;;;;;1.67;1.00;;;;;8.86;64.46;99435.63;2028021;28;2733618;-74
2024/02/23 02:44:32;;;;;;;;;1.33;1.33;;;;;8.86;64.23;99415.53;2027696;28;2737122;-73
2024/02/23 02:45:45;;;;;;;;;2.17;1.00;;;;;8.86;64.21;99425.16;2025303;28;2741947;-73
2024/02/23 02:46:59;;;;;;;;;3.00;1.83;;;;;8.87;64.11;99419.81;2003620;27;2737765;-73
2024/02/23 02:48:12;;;;;;;;;3.00;2.00;;;;;8.87;63.72;99416.34;2010558;28;2744044;-73
2024/02/23 02:49:25;;;;;;;;;2.50;2.00;;;;;8.88;64.14;99415.44;2002682;28;2739861;-73
2024/02/23 02:50:39;;;;;;;;;1.33;1.00;;;;;8.89;63.61;99425.84;2027624;28;2737762;-73
2024/02/23 02:51:52;;;;;;;;;0.50;0.50;;;;;8.88;63.93;99410.22;2028001;28;2723226;-73
2024/02/23 02:53:05;;;;;;;;;1.33;1.33;;;;;8.89;63.76;99415.38;2026111;28;2741445;-73
2024/02/23 02:54:18;;;;;;;;;2.00;1.17;;;;;8.87;63.99;99418.97;2003166;28;2742989;-73
2024/02/23 02:55:31;;;;;;;;;1.00;1.00;;;;;8.89;63.96;99423.22;2028376;28;2729448;-73
2024/02/23 02:56:47;;;;;;;;;2.17;1.67;;;;;8.87;63.49;99418.97;2027082;28;2738834;-73
2024/02/23 02:58:01;;;;;;;;;2.50;1.33;;;;;8.84;63.74;99413.91;2027914;28;2734632;-73
2024/02/23 02:59:14;;;;;;;;;4.67;2.50;;;;;8.84;63.78;99417.34;2026979;28;2745061;-73
2024/02/23 03:00:27;;;;;;;;;2.00;0.00;;;;;8.82;63.22;99408.72;2004533;28;2725305;-73
2024/02/23 03:01:41;;;;;;;;;1.67;1.50;;;;;8.84;63.31;99413.91;2026706;28;2741932;-73
2024/02/23 03:02:54;;;;;;;;;1.00;1.00;;;;;8.82;63.52;99400.84;2030453;28;2730482;-73
2024/02/23 03:04:08;;;;;;;;;3.33;1.50;;;;;8.81;64.05;99406.19;2026591;28;2744027;-73
2024/02/23 03:05:21;;;;;;;;;3.17;2.00;;;;;8.77;64.04;99403.69;2025845;27;2746087;-73
2024/02/23 03:06:34;;;;;;;;;0.50;0.50;;;;;8.81;63.91;99399.16;2003226;28;2736720;-73
2024/02/23 03:07:48;;;;;;;;;1.83;1.00;;;;;8.76;63.71;99394.16;2027187;28;2740266;-73
2024/02/23 03:09:01;;;;;;;;;2.50;0.50;;;;;8.80;64.06;99393.97;2026860;28;2737776;-73
2024/02/23 03:10:15;;;;;;;;;2.83;1.83;;;;;8.75;63.92;99386.34;2028183;28;2729453;-73
2024/02/23 03:11:28;;;;;;;;;2.67;1.00;;;;;8.73;63.72;99396.06;2027618;28;2732614;-72
2024/02/23 03:12:41;;;;;;;;;3.17;1.50;;;;;8.73;63.82;99396.91;2026207;28;2733619;-73
2024/02/23 03:13:55;;;;;;;;;2.00;2.00;;;;;8.71;63.99;99396.13;2026912;28;2732564;-73
2024/02/23 03:15:09;;;;;;;;;3.83;2.00;;;;;8.66;64.11;99382.41;2026785;28;2743006;-73
2024/02/23 03:16:25;;;;;;;;;1.83;0.00;;;;;8.69;64.17;99397.97;2002240;28;2730470;-72
2024/02/23 03:17:38;;;;;;;;;2.83;2.83;;;;;8.66;63.93;99395.50;2032718;28;2737801;-72
2024/02/23 03:18:54;;;;;;;;;0.83;0.83;;;;;8.64;63.75;99392.94;2017996;28;2729418;-72
2024/02/23 03:20:11;;;;;;;;;1.83;1.83;;;;;8.62;63.57;99393.91;2020723;28;2739201;-73
2024/02/23 03:21:24;;;;;;;;;0.67;0.67;;;;;8.60;63.95;99391.38;2027736;28;2733614;-73
2024/02/23 03:22:37;;;;;;;;;1.00;0.67;;;;;8.60;63.86;99395.78;2026453;28;2726311;-73
2024/02/23 03:23:51;;;;;;;;;4.50;2.00;;;;;8.58;64.11;99387.09;2026707;28;2746635;-73
2024/02/23 03:25:08;;;;;;;;;3.33;2.00;;;;;8.55;63.46;99383.72;2027602;28;2737782;-73
2024/02/23 03:26:21;;;;;;;;;0.33;0.00;;;;;8.55;63.65;99381.09;2027526;28;2730490;-73
2024/02/23 03:27:36;;;;;;;;;1.00;1.00;;;;;8.51;64.01;99387.41;2027152;28;2737788;-73
2024/02/23 03:28:49;;;;;;;;;0.67;0.67;;;;;8.49;63.66;99372.69;2027406;28;2736740;-73
2024/02/23 03:30:04;;;;;;;;;0.50;0.50;;;;;8.47;63.83;99375.34;2028187;28;2724220;-73
2024/02/23 03:31:18;;;;;;;;;0.83;0.83;;;;;8.47;64.27;99377.97;2026798;28;2737792;-73
2024/02/23 03:32:36;;;;;;;;;2.50;1.50;;;;;8.49;64.19;99372.69;2030087;28;2746171;-73
2024/02/23 03:33:49;;;;;;;;;2.00;2.00;;;;;8.47;64.02;99377.97;2026858;28;2737782;-73
2024/02/23 03:35:03;;;;;;;;;1.83;1.00;;;;;8.46;64.40;99367.56;2026171;28;2739850;-73
2024/02/23 03:36:17;;;;;;;;;3.67;1.00;;;;;8.40;64.07;99359.09;2028438;28;2733627;-72
2024/02/23 03:37:30;;;;;;;;;0.83;0.67;;;;;8.42;64.47;99351.19;2026768;28;2737769;-73
2024/02/23 03:38:43;;;;;;;;;1.83;0.83;;;;;8.39;64.02;99354.78;2026693;28;2744020;-73
2024/02/23 03:39:56;;;;;;;;;5.50;1.67;;;;;8.40;64.57;99363.47;2026551;28;2746143;-73
2024/02/23 03:41:09;;;;;;;;;2.00;1.67;;;;;8.37;64.16;99359.22;2026455;27;2744029;-72
2024/02/23 03:42:23;;;;;;;;;1.33;1.33;;;;;8.36;64.42;99346.19;2027508;28;2739897;-73
2024/02/23 03:43:38;;;;;;;;;1.83;1.83;;;;;8.34;64.18;99343.66;2026963;28;2734699;-73
2024/02/23 03:44:51;;;;;;;;;2.83;1.17;;;;;8.32;64.69;99343.72;2028031;28;2734633;-73
2024/02/23 03:46:05;;;;;;;;;1.00;1.00;;;;;8.35;64.22;99339.25;2026859;27;2737758;-73
2024/02/23 03:47:19;;;;;;;;;1.00;1.00;;;;;8.33;64.97;99336.72;2027554;28;2740946;-72
2024/02/23 03:48:32;;;;;;;;;2.00;2.00;;;;;8.36;64.45;99340.97;2026448;28;2739858;-73
2024/02/23 03:49:45;;;;;;;;;3.00;1.67;;;;;8.32;64.36;99325.41;2026347;28;2746161;-72
2024/02/23 03:50:58;;;;;;;;;2.00;1.00;;;;;8.35;64.53;99321.78;2027248;28;2735007;-72
2024/02/23 03:52:12;;;;;;;;;1.00;0.50;;;;;8.31;64.73;99328.09;2028295;28;2725350;-73
2024/02/23 03:53:25;;;;;;;;;0.33;0.33;;;;;8.32;64.65;99322.78;2025771;28;2729425;-73
2024/02/23 03:54:38;;;;;;;;;3.17;1.00;;;;;8.33;64.60;99329.72;2027525;28;2737837;-73
2024/02/23 03:55:51;;;;;;;;;0.50;0.50;;;;;8.31;64.49;99326.34;2017699;28;2740247;-73
2024/02/23 03:57:04;;;;;;;;;2.00;2.00;;;;;8.32;64.55;99325.41;2019731;28;2736731;-73
2024/02/23 03:58:18;;;;;;;;;0.50;0.00;;;;;8.32;64.45;99319.34;2026032;28;2729472;-73
2024/02/23 03:59:31;;;;;;;;;2.00;0.50;;;;;8.31;64.49;99322.84;2027616;28;2736302;-72
2024/02/23 04:00:44;;;;;;;;;2.50;1.00;;;;;8.28;64.71;99317.75;2035014;28;2734718;-72
2024/02/23 04:01:57;;;;;;;;;1.50;1.00;;;;;8.25;64.89;99316.13;2028184;28;2731552;-73
2024/02/23 04:03:10;;;;;;;;;0.17;0.17;;;;;8.26;65.06;99315.22;2026811;27;2725286;-73
2024/02/23 04:04:24;;;;;;;;;1.17;1.00;;;;;8.25;64.80;99303.03;2027328;28;2738823;-73
2024/02/23 04:05:37;;;;;;;;;3.17;1.17;;;;;8.25;64.86;99310.88;2026787;27;2741952;-72
2024/02/23 04:06:50;;;;;;;;;3.17;1.00;;;;;8.26;64.86;99311.75;2018443;28;2737774;-72
2024/02/23 04:08:04;;;;;;;;;3.33;1.50;;;;;8.21;64.89;99307.59;2018556;28;2741956;-73
2024/02/23 04:09:17;;;;;;;;;3.00;2.50;;;;;8.21;64.96;99306.72;2027260;28;2742630;-73
2024/02/23 04:10:30;;;;;;;;;0.50;0.50;;;;;8.22;64.81;99308.44;2026682;28;2731544;-73
2024/02/23 04:11:43;;;;;;;;;3.00;1.17;;;;;8.22;65.11;99309.25;2026538;28;2737762;-73
2024/02/23 04:12:57;;;;;;;;;1.00;1.00;;;;;8.22;64.95;99297.97;2025395;28;2735729;-73
2024/02/23 04:14:11;;;;;;;;;1.67;1.67;;;;;8.22;65.55;99303.19;2027196;28;2741429;-73
2024/02/23 04:15:24;;;;;;;;;2.17;2.17;;;;;8.21;65.24;99309.34;2027595;28;2739860;-72
2024/02/23 04:16:37;;;;;;;;;1.00;1.00;;;;;8.20;65.38;99299.78;2027038;28;2733599;-73
2024/02/23 04:17:50;;;;;;;;;1.00;1.00;;;;;8.20;65.02;99300.63;2026155;28;2733599;-72
2024/02/23 04:19:03;;;;;;;;;1.00;1.00;;;;;8.20;64.94;99305.03;2026436;27;2736155;-73
2024/02/23 04:20:16;;;;;;;;;4.83;1.00;;;;;8.21;65.05;99311.97;2027053;28;2735702;-73
2024/02/23 04:21:30;;;;;;;;;4.50;2.00;;;;;8.18;65.04;99306.84;2026043;28;2746503;-73
2024/02/23 04:22:44;;;;;;;;;1.83;1.00;;;;;8.18;65.06;99309.47;2026731;27;2737766;-73
2024/02/23 04:23:58;;;;;;;;;4.67;3.00;;;;;8.20;64.89;99310.25;2027125;28;2740913;-73
2024/02/23 04:25:11;;;;;;;;;1.67;1.00;;;;;8.18;64.88;99306.84;2026961;28;2739864;-73
2024/02/23 04:26:24;;;;;;;;;2.67;2.00;;;;;8.20;65.16;99310.25;2027634;27;2741367;-73
2024/02/23 04:27:37;;;;;;;;;1.00;1.00;;;;;8.16;64.80;99303.47;2026520;28;2731536;-72
2024/02/23 04:28:50;;;;;;;;;2.67;1.00;;;;;8.19;64.99;99306.81;2027157;28;2737791;-72
2024/02/23 04:30:04;;;;;;;;;0.83;0.83;;;;;8.16;65.17;99301.72;2026057;28;2738117;-73
2024/02/23 04:31:17;;;;;;;;;4.00;1.00;;;;;8.16;65.09;99303.47;2027118;28;2739871;-73
2024/02/23 04:32:31;;;;;;;;;2.83;1.00;;;;;8.14;65.53;99300.94;2026076;28;2744387;-72
2024/02/23 04:33:44;;;;;;;;;4.00;1.17;;;;;8.16;65.02;99308.72;2026377;28;2736717;-72
2024/02/23 04:34:57;;;;;;;;;1.17;1.00;;;;;8.14;65.35;99315.78;2026901;27;2733622;-72
2024/02/23 04:36:10;;;;;;;;;2.67;1.00;;;;;8.14;65.34;99305.31;2027165;27;2741927;-72
2024/02/23 04:37:23;;;;;;;;;0.67;0.67;;;;;8.16;65.33;99306.09;2026572;28;2737238;-72
2024/02/23 04:38:37;;;;;;;;;2.00;1.00;;;;;8.16;65.32;99309.56;2026843;27;2737778;-73
2024/02/23 04:39:50;;;;;;;;;1.00;1.00;;;;;8.13;64.91;99298.38;2026108;28;2737789;-73
2024/02/23 04:41:04;;;;;;;;;1.83;0.17;;;;;8.13;65.34;99311.47;2026561;28;2739853;-72
2024/02/23 04:42:17;;;;;;;;;2.67;1.67;;;;;8.14;65.31;99310.56;2026255;28;2744044;-73
2024/02/23 04:43:31;;;;;;;;;1.17;1.00;;;;;8.12;65.26;99308.00;2027617;28;2739857;-72
2024/02/23 04:44:45;;;;;;;;;1.17;1.00;;;;;8.16;65.71;99308.72;2021512;28;2732916;-73
2024/02/23 04:45:59;;;;;;;;;1.83;1.83;;;;;8.12;65.48;99302.78;2021145;28;2744024;-72
2024/02/23 04:47:12;;;;;;;;;0.50;0.00;;;;;8.13;65.14;99304.47;2027916;28;2739857;-72
2024/02/23 04:48:25;;;;;;;;;3.00;1.00;;;;;8.15;65.43;99312.25;2027714;27;2733598;-72
2024/02/23 04:49:39;;;;;;;;;0.67;0.67;;;;;8.12;65.21;99308.00;2018948;28;2726344;-73
2024/02/23 04:50:52;;;;;;;;;1.50;1.50;;;;;8.13;65.25;99306.22;2021002;28;2736728;-72
2024/02/23 04:52:05;;;;;;;;;2.17;1.33;;;;;8.15;65.70;99323.56;2026578;28;2740923;-73
2024/02/23 04:53:19;;;;;;;;;1.50;1.00;;;;;8.12;65.46;99310.63;2028520;28;2733614;-72
2024/02/23 04:54:32;;;;;;;;;1.00;1.00;;;;;8.12;65.46;99305.41;2027930;28;2737126;-73
2024/02/23 04:55:45;;;;;;;;;1.67;1.00;;;;;8.11;65.36;99303.69;2027683;28;2738799;-73
2024/02/23 04:56:58;;;;;;;;;2.50;1.83;;;;;8.12;65.13;99299.31;2027690;28;2743007;-73
2024/02/23 04:58:12;;;;;;;;;2.67;1.00;;;;;8.10;65.16;99305.44;1996436;28;2730475;-72
2024/02/23 04:59:25;;;;;;;;;0.00;0.00;;;;;8.09;65.42;99301.16;2024990;28;2725742;-72
2024/02/23 05:00:38;;;;;;;;;2.00;0.33;;;;;8.09;65.25;99309.00;2027403;27;2735702;-72
2024/02/23 05:01:51;;;;;;;;;2.50;2.00;;;;;8.08;65.19;99302.06;2026770;27;2746098;-73
2024/02/23 05:03:06;;;;;;;;;3.83;0.50;;;;;8.08;65.26;99307.28;2028465;27;2727349;-73
2024/02/23 05:04:19;;;;;;;;;1.33;0.83;;;;;8.10;65.06;99309.81;2027833;28;2737774;-72
2024/02/23 05:05:33;;;;;;;;;1.50;1.00;;;;;8.08;65.37;99303.81;2027572;28;2739856;-73
2024/02/23 05:06:46;;;;;;;;;1.83;1.83;;;;;8.08;65.53;99316.91;2027804;28;2741991;-72
2024/02/23 05:07:59;;;;;;;;;1.00;1.00;;;;;8.07;65.59;99312.59;2028260;28;2739861;-72
2024/02/23 05:09:12;;;;;;;;;2.00;1.00;;;;;8.07;65.06;99310.84;2026675;28;2738218;-72
2024/02/23 05:10:25;;;;;;;;;1.17;1.17;;;;;8.07;65.63;99312.59;2027260;28;2744075;-73
2024/02/23 05:11:39;;;;;;;;;3.00;1.00;;;;;8.08;65.27;99317.75;2004908;28;2738336;-73
2024/02/23 05:12:52;;;;;;;;;1.00;1.00;;;;;8.03;65.76;99309.25;2028407;28;2736717;-72
2024/02/23 05:14:05;;;;;;;;;2.50;1.83;;;;;8.05;65.68;99317.06;2027383;28;2746102;-72
2024/02/23 05:15:19;;;;;;;;;0.00;0.00;;;;;8.03;65.71;99317.13;2028977;28;2729455;-72
2024/02/23 05:16:32;;;;;;;;;1.33;1.00;;;;;8.03;65.43;99317.13;2027810;27;2737766;-72
2024/02/23 05:17:45;;;;;;;;;1.67;1.00;;;;;8.06;65.64;99314.38;2027948;28;2738796;-72
2024/02/23 05:18:58;;;;;;;;;1.17;0.00;;;;;8.04;65.29;99318.81;2027249;27;2735707;-72
2024/02/23 05:20:12;;;;;;;;;1.67;1.00;;;;;8.01;65.32;99311.09;2027057;28;2741991;-72
2024/02/23 05:21:25;;;;;;;;;3.50;1.67;;;;;8.02;65.26;99304.09;2033323;28;2737794;-72
2024/02/23 05:22:40;;;;;;;;;1.00;1.00;;;;;8.05;65.38;99314.44;2029109;28;2735720;-73
2024/02/23 05:23:53;;;;;;;;;0.83;0.00;;;;;8.02;65.72;99315.44;2022092;28;2735689;-72
2024/02/23 05:25:06;;;;;;;;;1.00;0.83;;;;;8.01;65.61;99313.72;2027208;28;2741948;-73
2024/02/23 05:26:20;;;;;;;;;2.00;2.00;;;;;8.01;65.40;99313.72;2027644;28;2740333;-72
2024/02/23 05:27:33;;;;;;;;;0.83;0.83;;;;;8.02;65.07;99310.19;2027731;27;2744038;-73
2024/02/23 05:28:46;;;;;;;;;1.67;1.00;;;;;8.02;65.46;99309.34;2027718;28;2737779;-72
2024/02/23 05:29:59;;;;;;;;;1.33;1.33;;;;;7.99;65.85;99307.72;2021806;28;2734668;-73
2024/02/23 05:31:13;;;;;;;;;4.00;2.00;;;;;8.01;65.12;99320.72;2023602;28;2740906;-73
2024/02/23 05:32:26;;;;;;;;;0.00;0.00;;;;;7.98;65.73;99316.47;2005412;28;2731519;-73
2024/02/23 05:33:39;;;;;;;;;2.50;1.50;;;;;7.97;65.80;99314.78;2027484;28;2737798;-73
2024/02/23 05:34:54;;;;;;;;;1.50;0.17;;;;;7.99;64.89;99319.03;2027796;28;2742966;-73
2024/02/23 05:36:07;;;;;;;;;1.17;1.17;;;;;7.94;65.31;99315.78;2017192;28;2739850;-73
2024/02/23 05:37:20;;;;;;;;;1.83;1.00;;;;;7.93;65.91;99319.28;2021276;28;2731582;-72
2024/02/23 05:38:33;;;;;;;;;4.83;1.33;;;;;7.93;65.77;99321.91;2027912;28;2737766;-73
2024/02/23 05:39:47;;;;;;;;;2.83;1.00;;;;;7.93;65.50;99323.66;2003623;28;2738821;-72
2024/02/23 05:41:00;;;;;;;;;1.33;1.00;;;;;7.91;65.47;99326.38;2028173;28;2726347;-73
2024/02/23 05:42:14;;;;;;;;;1.00;1.00;;;;;7.90;65.38;99316.84;2027867;28;2737769;-73